Santurtzi, Spain
Current Conditions -  °F | °C
As of 10:30 AM on Tuesday 21 Oct 2014 (Local Time) from LEBB Reporting Station
Clear Clear  
Wind Chill: 17°   Ceiling: Unl
Heat Index: 17°   Visibility: 5mi
Dew Point: 15°   Wind: 2mph
Humidity: 88%   Direction: NA
Pressure: 30.27"   Gusts: NA
Location:  43.33°N, 3.03°W
Report Text: LEBB 210830Z VRB02KT 8000 NSC 17/15 Q1025 NOSIG
Loading
Personal Weather Stations






























Interactive Weather Map
Tropical Storm Tracking
New forecast layout! Learn more

10-Day Weather Forecast

Advertisements
Track Severe Weather on mobile